createdAt,value
2023-04-02T00:05:32.049Z,8.75
2023-04-02T00:08:41.165Z,8.75
2023-04-02T00:11:48.768Z,8.74
2023-04-02T00:14:55.451Z,8.73
2023-04-02T00:18:00.429Z,8.72
2023-04-02T00:21:11.796Z,8.70
2023-04-02T00:24:18.215Z,8.70
2023-04-02T00:27:22.158Z,8.70
2023-04-02T00:30:25.967Z,8.71
2023-04-02T00:33:32.342Z,8.73
2023-04-02T00:36:37.003Z,8.74
2023-04-02T00:39:43.377Z,8.74
2023-04-02T00:42:49.032Z,8.76
2023-04-02T00:45:57.270Z,8.80
2023-04-02T00:49:10.956Z,8.83
2023-04-02T00:52:18.895Z,8.86
2023-04-02T00:55:25.627Z,8.87
2023-04-02T00:58:34.244Z,8.87
2023-04-02T01:01:42.942Z,8.90
2023-04-02T01:04:55.220Z,8.89
2023-04-02T01:08:26.120Z,8.86
2023-04-02T01:11:57.884Z,8.83
2023-04-02T01:15:53.039Z,8.82
2023-04-02T01:19:26.401Z,8.82
2023-04-02T01:23:09.833Z,8.82
2023-04-02T01:26:13.335Z,8.80
2023-04-02T01:29:30.973Z,8.80
2023-04-02T01:32:35.140Z,8.81
2023-04-02T01:35:44.800Z,8.82
2023-04-02T01:39:03.293Z,8.80
2023-04-02T01:42:13.564Z,8.78
2023-04-02T01:45:19.771Z,8.76
2023-04-02T01:48:30.400Z,8.76
2023-04-02T01:51:39.820Z,8.73
2023-04-02T01:54:44.761Z,8.72
2023-04-02T01:57:52.137Z,8.70
2023-04-02T02:04:55.092Z,8.65
2023-04-02T02:08:01.656Z,8.65
2023-04-02T02:11:11.992Z,8.62
2023-04-02T02:14:23.270Z,8.61
2023-04-02T02:17:35.027Z,8.58
2023-04-02T02:20:38.412Z,8.55
2023-04-02T02:23:43.433Z,8.53
2023-04-02T02:26:52.207Z,8.52
2023-04-02T02:30:06.408Z,8.51
2023-04-02T02:33:22.492Z,8.49
2023-04-02T02:36:47.116Z,8.48
2023-04-02T02:39:58.603Z,8.47
2023-04-02T02:43:06.479Z,8.46
2023-04-02T02:46:16.712Z,8.46
2023-04-02T02:49:27.920Z,8.45
2023-04-02T02:52:35.314Z,8.45
2023-04-02T02:55:42.293Z,8.46
2023-04-02T02:58:53.170Z,8.48
2023-04-02T03:02:02.721Z,8.50
2023-04-02T03:05:07.732Z,8.51
2023-04-02T03:08:20.672Z,8.51
2023-04-02T03:11:27.354Z,8.51
2023-04-02T03:14:49.081Z,8.52
2023-04-02T03:18:34.488Z,8.51
2023-04-02T03:21:49.040Z,8.50
2023-04-02T03:24:58.009Z,8.49
2023-04-02T03:28:06.243Z,8.50
2023-04-02T03:31:32.753Z,8.50
2023-04-02T03:34:57.961Z,8.52
2023-04-02T03:38:22.312Z,8.51
2023-04-02T03:41:46.904Z,8.53
2023-04-02T03:45:20.415Z,8.56
2023-04-02T03:48:34.261Z,8.59
2023-04-02T03:51:55.667Z,8.60
2023-04-02T03:55:02.353Z,8.60
2023-04-02T03:58:43.462Z,8.58
2023-04-02T04:04:56.586Z,8.55
2023-04-02T04:08:16.277Z,8.55
2023-04-02T04:11:24.984Z,8.58
2023-04-02T04:14:32.529Z,8.55
2023-04-02T04:18:03.495Z,8.54
2023-04-02T04:21:38.005Z,8.56
2023-04-02T04:24:49.551Z,8.59
2023-04-02T04:28:19.369Z,8.59
2023-04-02T04:31:34.124Z,8.59
2023-04-02T04:34:51.739Z,8.63
2023-04-02T04:38:07.860Z,8.66
2023-04-02T04:41:21.607Z,8.67
2023-04-02T04:44:39.859Z,8.71
2023-04-02T04:47:57.879Z,8.73
2023-04-02T04:51:17.681Z,8.73
2023-04-02T04:54:26.818Z,8.74
2023-04-02T04:57:38.714Z,8.77
2023-04-02T05:01:04.570Z,8.80
2023-04-02T05:04:17.731Z,8.81
2023-04-02T05:07:36.225Z,8.80
2023-04-02T05:10:43.112Z,8.83
2023-04-02T05:13:58.376Z,8.88
2023-04-02T05:17:14.881Z,8.91
2023-04-02T05:20:32.020Z,8.93
2023-04-02T05:23:51.483Z,8.94
2023-04-02T05:27:02.303Z,8.95
2023-04-02T05:30:38.731Z,8.97
2023-04-02T05:33:47.919Z,9.02
2023-04-02T05:36:52.112Z,9.02
2023-04-02T05:40:06.489Z,9.03
2023-04-02T05:43:18.409Z,9.06
2023-04-02T05:46:28.211Z,9.10
2023-04-02T05:49:43.115Z,9.12
2023-04-02T05:52:53.734Z,9.12
2023-04-02T05:56:07.988Z,9.11
2023-04-02T05:59:21.790Z,9.14
2023-04-02T06:05:18.726Z,9.13
2023-04-02T06:08:31.096Z,9.12
2023-04-02T06:11:45.373Z,9.12
2023-04-02T06:14:54.810Z,9.08
2023-04-02T06:18:23.935Z,9.05
2023-04-02T06:21:28.528Z,9.03
2023-04-02T06:24:31.446Z,9.05
2023-04-02T06:27:37.402Z,9.08
2023-04-02T06:30:43.184Z,9.11
2023-04-02T06:33:51.887Z,9.17
2023-04-02T06:37:00.804Z,9.19
2023-04-02T06:40:18.608Z,9.24
2023-04-02T06:43:33.050Z,9.26
2023-04-02T06:47:21.772Z,9.29
2023-04-02T06:50:27.784Z,9.32
2023-04-02T06:53:53.403Z,9.32
2023-04-02T06:56:56.313Z,9.36
2023-04-02T07:00:29.545Z,9.39
2023-04-02T07:03:54.467Z,9.41
2023-04-02T07:07:02.630Z,9.47
2023-04-02T07:10:09.885Z,9.55
2023-04-02T07:13:19.154Z,9.62
2023-04-02T07:16:26.527Z,9.68
2023-04-02T07:19:29.433Z,9.67
2023-04-02T07:22:33.355Z,9.71
2023-04-02T07:25:37.536Z,9.71
2023-04-02T07:28:40.047Z,9.75
2023-04-02T07:31:43.785Z,9.74
2023-04-02T07:34:46.739Z,9.74
2023-04-02T07:37:49.789Z,9.73
2023-04-02T07:40:52.041Z,9.76
2023-04-02T07:43:58.834Z,9.79
2023-04-02T07:47:02.850Z,9.84
2023-04-02T07:50:06.209Z,9.92
2023-04-02T07:53:29.340Z,9.98
2023-04-02T07:56:32.139Z,9.97
2023-04-02T07:59:36.146Z,10.00
2023-04-02T08:02:40.920Z,10.02
2023-04-02T08:05:43.218Z,10.01
